Time;durP1;ratioP1;P1;durP2;ratioP2;P2;SDS_P1;SDS_P2;PMS_P1;PMS_P2;Temp;Humidity;BMP_temperature;BMP_pressure;BME280_temperature;BME280_humidity;BME280_pressure;Samples;Min_cycle;Max_cycle;Signal;HPM_P1;HPM_P2
2022/03/20 00:00:41;;;;;;;25.70;18.47;;;4.20;94.00;;;;;;5177091;27;20201;-53
2022/03/20 00:03:12;;;;;;;27.57;15.93;;;4.10;94.10;;;;;;5176122;27;20203;-52
2022/03/20 00:05:42;;;;;;;26.83;16.60;;;4.20;93.90;;;;;;5176931;27;20215;-53
2022/03/20 00:08:12;;;;;;;23.97;15.07;;;4.10;93.70;;;;;;5172590;27;20829;-53
2022/03/20 00:10:44;;;;;;;27.13;17.47;;;4.20;93.70;;;;;;5155475;27;20676;-53
2022/03/20 00:13:15;;;;;;;27.03;18.10;;;4.20;93.40;;;;;;5154151;27;20681;-52
2022/03/20 00:15:44;;;;;;;26.60;18.30;;;4.20;93.50;;;;;;5155779;27;20217;-53
2022/03/20 00:18:14;;;;;;;29.00;18.43;;;4.10;93.40;;;;;;5155786;27;20224;-53
2022/03/20 00:20:46;;;;;;;25.83;16.17;;;4.20;93.40;;;;;;5161213;27;20665;-53
2022/03/20 00:23:16;;;;;;;26.63;17.33;;;4.10;93.20;;;;;;5176088;27;20196;-52
2022/03/20 00:25:45;;;;;;;25.93;17.80;;;4.10;93.20;;;;;;5176521;27;20208;-53
2022/03/20 00:28:15;;;;;;;28.73;19.20;;;4.00;93.10;;;;;;5175670;27;20733;-53
2022/03/20 00:30:45;;;;;;;25.90;17.43;;;4.00;93.30;;;;;;5176399;27;20228;-52
2022/03/20 00:33:13;;;;;;;25.00;16.07;;;4.10;93.20;;;;;;5175690;27;20664;-53
2022/03/20 00:35:42;;;;;;;26.77;17.87;;;4.00;92.90;;;;;;5157172;27;20621;-53
2022/03/20 00:38:11;;;;;;;26.23;17.77;;;4.10;93.10;;;;;;5155308;27;20231;-52
2022/03/20 00:40:40;;;;;;;24.00;16.67;;;4.00;93.10;;;;;;5154953;27;20226;-53
2022/03/20 00:43:08;;;;;;;26.13;16.37;;;4.00;93.10;;;;;;5154923;27;20202;-53
2022/03/20 00:45:37;;;;;;;29.77;18.40;;;4.00;93.00;;;;;;5154691;27;20856;-53
2022/03/20 00:48:07;;;;;;;28.00;16.13;;;4.00;93.10;;;;;;5155012;27;20221;-53
2022/03/20 00:50:36;;;;;;;26.77;17.27;;;4.00;93.00;;;;;;5157530;27;20243;-53
2022/03/20 00:53:05;;;;;;;25.47;15.87;;;4.10;93.00;;;;;;5175438;27;20214;-53
2022/03/20 00:55:33;;;;;;;25.53;17.33;;;4.10;92.70;;;;;;5174584;27;20206;-53
2022/03/20 00:58:01;;;;;;;23.57;16.83;;;4.10;92.80;;;;;;5175343;27;20776;-53
2022/03/20 01:00:32;;;;;;;24.33;16.47;;;4.10;92.50;;;;;;5174873;27;20745;-53
2022/03/20 01:03:02;;;;;;;24.00;16.77;;;4.20;92.80;;;;;;5174275;27;20207;-53
2022/03/20 01:05:31;;;;;;;25.23;17.87;;;4.20;92.60;;;;;;5175944;27;20213;-53
2022/03/20 01:08:00;;;;;;;29.10;15.50;;;4.20;92.70;;;;;;5175618;27;20219;-53
2022/03/20 01:10:34;;;;;;;22.60;14.23;;;4.20;92.40;;;;;;5175355;27;20248;-53
2022/03/20 01:13:02;;;;;;;22.50;13.60;;;4.20;92.40;;;;;;5174835;27;20706;-53
2022/03/20 01:15:31;;;;;;;26.43;18.47;;;4.20;92.30;;;;;;5175239;27;20665;-52
2022/03/20 01:17:59;;;;;;;28.43;17.80;;;4.10;92.40;;;;;;5175483;27;20304;-53
2022/03/20 01:20:27;;;;;;;27.67;17.10;;;4.20;92.40;;;;;;5175209;27;20252;-53
2022/03/20 01:22:56;;;;;;;21.47;13.77;;;4.20;92.50;;;;;;5157548;27;20680;-53
2022/03/20 01:25:24;;;;;;;23.47;14.77;;;4.20;92.30;;;;;;5154227;27;20635;-53
2022/03/20 01:27:54;;;;;;;26.03;18.23;;;4.20;92.30;;;;;;5157002;27;20237;-53
2022/03/20 01:30:22;;;;;;;27.43;18.67;;;4.10;92.30;;;;;;5172854;27;20241;-53
2022/03/20 01:32:50;;;;;;;24.53;17.40;;;4.10;92.60;;;;;;5166157;27;20820;-53
2022/03/20 01:35:18;;;;;;;26.47;16.27;;;4.10;92.30;;;;;;5174882;27;20237;-52
2022/03/20 01:37:46;;;;;;;26.07;17.47;;;4.20;92.40;;;;;;5174565;27;20310;-53
2022/03/20 01:40:15;;;;;;;25.30;16.53;;;4.20;92.40;;;;;;5175054;27;20248;-53
2022/03/20 01:42:44;;;;;;;24.30;16.30;;;4.20;92.40;;;;;;5174485;27;20201;-52
2022/03/20 01:45:16;;;;;;;25.53;17.77;;;4.10;92.20;;;;;;5174615;27;20207;-53
2022/03/20 01:47:47;;;;;;;22.40;15.17;;;4.20;92.40;;;;;;5173087;27;20251;-53
2022/03/20 01:50:16;;;;;;;29.57;17.90;;;4.20;92.30;;;;;;5169254;27;20610;-50
2022/03/20 01:52:46;;;;;;;26.07;15.83;;;4.10;92.30;;;;;;5174202;27;20322;-50
2022/03/20 01:55:15;;;;;;;25.37;16.50;;;4.20;92.30;;;;;;5172637;27;20262;-50
2022/03/20 01:57:44;;;;;;;22.60;16.03;;;4.20;92.20;;;;;;5174875;27;20822;-51
2022/03/20 02:00:16;;;;;;;27.33;17.17;;;4.20;92.40;;;;;;5171153;27;20667;-51
2022/03/20 02:02:45;;;;;;;32.80;18.93;;;4.20;92.40;;;;;;5174031;27;20246;-50
2022/03/20 02:05:14;;;;;;;26.80;17.93;;;4.10;92.10;;;;;;5174054;27;20650;-51
2022/03/20 02:07:44;;;;;;;22.67;15.57;;;4.20;92.30;;;;;;5174571;27;20227;-50
2022/03/20 02:10:12;;;;;;;26.17;18.33;;;4.20;92.40;;;;;;5174773;27;20247;-50
2022/03/20 02:12:41;;;;;;;25.70;17.27;;;4.10;92.40;;;;;;5172759;27;20266;-50
2022/03/20 02:15:12;;;;;;;24.10;14.93;;;4.20;92.40;;;;;;5174385;27;20256;-50
2022/03/20 02:17:43;;;;;;;25.40;18.10;;;4.30;92.10;;;;;;5174434;27;20334;-50
2022/03/20 02:20:13;;;;;;;24.27;14.93;;;4.20;92.50;;;;;;5159681;27;20207;-50
2022/03/20 02:22:44;;;;;;;23.20;15.40;;;4.30;92.10;;;;;;5154961;27;20445;-50
2022/03/20 02:25:15;;;;;;;24.23;16.40;;;4.20;92.10;;;;;;5174234;27;20276;-53
2022/03/20 02:27:44;;;;;;;25.40;16.93;;;4.20;92.00;;;;;;5174038;27;20230;-52
2022/03/20 02:30:17;;;;;;;25.87;16.33;;;4.20;92.00;;;;;;5174173;27;20250;-50
2022/03/20 02:32:48;;;;;;;26.00;16.73;;;4.20;92.10;;;;;;5173761;27;20223;-50
2022/03/20 02:35:18;;;;;;;24.50;17.03;;;4.20;92.10;;;;;;5173692;27;20209;-50
2022/03/20 02:37:49;;;;;;;26.37;16.93;;;4.10;92.00;;;;;;5173692;27;20232;-50
2022/03/20 02:40:19;;;;;;;24.30;16.73;;;4.10;92.00;;;;;;5171684;27;20258;-50
2022/03/20 02:42:49;;;;;;;28.87;18.20;;;4.20;92.30;;;;;;5151934;27;20557;-50
2022/03/20 02:45:21;;;;;;;21.50;14.07;;;4.10;92.00;;;;;;5153151;27;20202;-50
2022/03/20 02:47:51;;;;;;;22.43;15.37;;;4.10;92.30;;;;;;5152043;27;20219;-50
2022/03/20 02:50:22;;;;;;;23.83;15.20;;;4.10;92.20;;;;;;5151723;27;20262;-50
2022/03/20 02:52:53;;;;;;;26.90;16.53;;;4.10;92.10;;;;;;5152280;27;20219;-50
2022/03/20 02:55:22;;;;;;;29.80;17.93;;;4.10;92.10;;;;;;5152541;27;20636;-50
2022/03/20 02:57:51;;;;;;;25.77;16.43;;;4.10;92.10;;;;;;5152755;27;20298;-50
2022/03/20 03:00:22;;;;;;;27.00;18.03;;;4.20;92.20;;;;;;5152597;27;20214;-50
2022/03/20 03:02:52;;;;;;;24.63;16.43;;;4.00;92.10;;;;;;5152602;27;20551;-50
2022/03/20 03:05:21;;;;;;;25.13;17.47;;;4.10;92.20;;;;;;5164062;27;20211;-50
2022/03/20 03:10:59;;;;;;;26.17;17.30;;;4.00;92.10;;;;;;5173195;27;20189;-53
2022/03/20 03:13:30;;;;;;;27.83;18.03;;;3.90;92.30;;;;;;5172037;27;20682;-52
2022/03/20 03:16:00;;;;;;;20.97;14.23;;;3.90;92.20;;;;;;5173804;27;20187;-54
2022/03/20 03:18:29;;;;;;;27.00;18.23;;;4.00;92.30;;;;;;5175197;27;20206;-53
2022/03/20 03:20:57;;;;;;;24.47;15.73;;;3.90;92.20;;;;;;5156880;27;20198;-53
2022/03/20 03:23:27;;;;;;;22.80;14.93;;;4.00;92.20;;;;;;5164767;27;20246;-53
2022/03/20 03:25:56;;;;;;;21.60;16.07;;;3.90;92.20;;;;;;5177683;27;20620;-53
2022/03/20 03:28:32;;;;;;;26.27;18.17;;;3.90;92.30;;;;;;5177291;27;20210;-52
2022/03/20 03:31:00;;;;;;;27.10;16.20;;;3.90;92.20;;;;;;5177545;27;20220;-53
2022/03/20 03:33:29;;;;;;;26.77;17.53;;;3.90;92.20;;;;;;5177174;27;20640;-53
2022/03/20 03:35:57;;;;;;;29.73;18.20;;;3.90;92.50;;;;;;5177066;27;20675;-53
2022/03/20 03:38:30;;;;;;;22.03;15.07;;;3.90;92.60;;;;;;5177433;27;20206;-52
2022/03/20 03:40:59;;;;;;;27.37;19.00;;;3.90;92.40;;;;;;5177464;27;20207;-52
2022/03/20 03:43:27;;;;;;;26.33;17.27;;;3.80;92.60;;;;;;5176376;27;20223;-52
2022/03/20 03:45:56;;;;;;;22.77;16.30;;;4.00;92.70;;;;;;5177744;27;20254;-53
2022/03/20 03:48:25;;;;;;;27.93;17.27;;;3.90;92.50;;;;;;5176978;27;20623;-53
2022/03/20 03:50:54;;;;;;;25.30;18.20;;;3.90;92.70;;;;;;5177419;27;20268;-53
2022/03/20 03:53:22;;;;;;;27.63;18.00;;;3.90;92.50;;;;;;5176565;27;20639;-52
2022/03/20 03:55:52;;;;;;;26.70;18.67;;;3.90;92.70;;;;;;5177235;27;20628;-52
2022/03/20 03:58:20;;;;;;;31.40;18.40;;;3.80;92.80;;;;;;5176685;27;20218;-52
2022/03/20 04:00:48;;;;;;;28.53;17.70;;;3.80;92.90;;;;;;5177340;27;20201;-53
2022/03/20 04:03:16;;;;;;;26.27;17.17;;;3.80;92.80;;;;;;5176803;27;20201;-53
2022/03/20 04:05:44;;;;;;;27.47;17.13;;;3.80;92.90;;;;;;5176988;27;20202;-53
2022/03/20 04:08:15;;;;;;;25.80;18.03;;;3.70;92.90;;;;;;5176883;27;20220;-53
2022/03/20 04:10:43;;;;;;;28.23;18.37;;;3.70;93.20;;;;;;5176854;27;20217;-52
2022/03/20 04:13:13;;;;;;;27.70;17.77;;;3.70;93.20;;;;;;5176519;27;20201;-53
2022/03/20 04:15:41;;;;;;;24.70;16.37;;;3.60;93.10;;;;;;5176788;27;20255;-52
2022/03/20 04:18:10;;;;;;;27.93;17.77;;;3.60;93.20;;;;;;5177051;27;20247;-53
2022/03/20 04:20:38;;;;;;;29.80;18.80;;;3.50;93.30;;;;;;5176967;27;20246;-53
2022/03/20 04:25:52;;;;;;;29.57;20.00;;;3.40;93.40;;;;;;5176644;27;20702;-51
2022/03/20 04:28:22;;;;;;;28.30;19.67;;;3.40;93.60;;;;;;5176127;27;20594;-53
2022/03/20 04:30:50;;;;;;;30.23;19.83;;;3.30;93.60;;;;;;5167982;27;20205;-53
2022/03/20 04:33:18;;;;;;;28.43;18.87;;;3.40;93.80;;;;;;5155407;27;20238;-53
2022/03/20 04:35:46;;;;;;;24.97;15.60;;;3.30;93.80;;;;;;5168048;27;20283;-52
2022/03/20 04:38:14;;;;;;;26.00;18.47;;;3.40;93.80;;;;;;5155788;27;20310;-53
2022/03/20 04:40:42;;;;;;;28.33;18.47;;;3.30;93.90;;;;;;5155599;27;20277;-52
2022/03/20 04:43:10;;;;;;;29.80;18.57;;;3.30;93.90;;;;;;5155075;27;20251;-53
2022/03/20 04:45:40;;;;;;;29.00;19.10;;;3.30;93.90;;;;;;5155358;27;20209;-52
2022/03/20 04:59:10;;;;;;;30.07;17.90;;;3.10;94.30;;;;;;5155192;27;20224;-53
2022/03/20 05:01:40;;;;;;;30.50;19.07;;;3.10;94.30;;;;;;5166072;27;20197;-53
2022/03/20 05:04:08;;;;;;;29.33;19.80;;;3.10;94.30;;;;;;5169602;27;20203;-53
2022/03/20 05:06:36;;;;;;;29.87;20.17;;;3.00;94.30;;;;;;5154690;27;20219;-53
2022/03/20 05:14:35;;;;;;;31.20;19.60;;;3.00;94.50;;;;;;5174330;27;20227;-53
2022/03/20 05:17:06;;;;;;;33.57;20.13;;;3.00;94.60;;;;;;5175597;27;20635;-53
2022/03/20 05:19:35;;;;;;;28.87;19.87;;;3.00;94.60;;;;;;5175696;27;20213;-52
2022/03/20 05:22:05;;;;;;;30.57;20.37;;;3.00;94.60;;;;;;5175416;27;20206;-52
2022/03/20 05:24:35;;;;;;;31.40;21.60;;;3.00;94.60;;;;;;5157277;27;20205;-53
2022/03/20 05:27:03;;;;;;;29.90;20.37;;;3.00;94.80;;;;;;5154308;27;20294;-52
2022/03/20 05:29:32;;;;;;;32.70;19.57;;;3.00;94.70;;;;;;5154536;27;20274;-52
2022/03/20 05:32:02;;;;;;;33.97;16.63;;;3.00;94.80;;;;;;5169094;27;20264;-53
2022/03/20 05:34:33;;;;;;;29.10;17.67;;;3.10;94.80;;;;;;5175187;27;20223;-52
2022/03/20 05:37:01;;;;;;;31.97;19.63;;;3.00;94.70;;;;;;5175382;27;20221;-53
2022/03/20 05:39:30;;;;;;;27.07;20.20;;;3.10;95.20;;;;;;5175161;27;20208;-53
2022/03/20 05:41:58;;;;;;;25.93;17.97;;;3.10;94.90;;;;;;5174412;27;20210;-53
2022/03/20 05:44:27;;;;;;;27.40;19.50;;;3.10;94.80;;;;;;5175078;27;20198;-53
2022/03/20 05:46:58;;;;;;;27.77;19.07;;;3.10;95.00;;;;;;5174984;27;20238;-53
2022/03/20 05:49:26;;;;;;;30.70;20.07;;;3.00;95.00;;;;;;5174932;27;20205;-52
2022/03/20 05:51:55;;;;;;;26.50;19.30;;;3.00;95.10;;;;;;5174259;27;20199;-52
2022/03/20 05:54:23;;;;;;;30.27;20.23;;;3.00;95.20;;;;;;5174960;27;20604;-51
2022/03/20 05:59:37;;;;;;;31.20;18.63;;;3.00;95.30;;;;;;5174806;27;20279;-53
2022/03/20 06:02:08;;;;;;;35.73;20.77;;;3.00;95.30;;;;;;5174030;27;20245;-53
2022/03/20 06:04:37;;;;;;;32.20;21.40;;;3.10;95.50;;;;;;5174742;27;20205;-52
2022/03/20 06:07:08;;;;;;;28.87;17.87;;;3.10;95.30;;;;;;5174890;27;20228;-52
2022/03/20 06:09:37;;;;;;;27.10;18.40;;;3.00;95.30;;;;;;5174594;27;20193;-53
2022/03/20 06:12:06;;;;;;;26.77;18.50;;;3.00;95.30;;;;;;5174057;27;20209;-52
2022/03/20 06:14:35;;;;;;;30.70;20.13;;;3.00;95.30;;;;;;5172789;27;20269;-53
2022/03/20 06:17:05;;;;;;;28.57;20.67;;;3.10;95.50;;;;;;5174459;27;20231;-53
2022/03/20 06:19:35;;;;;;;30.93;19.10;;;3.10;95.50;;;;;;5174464;27;20212;-52
2022/03/20 06:22:04;;;;;;;26.53;18.00;;;3.20;95.60;;;;;;5173821;27;20329;-53
2022/03/20 06:24:34;;;;;;;31.57;19.03;;;3.20;95.50;;;;;;5155831;27;20666;-53
2022/03/20 06:27:02;;;;;;;26.70;17.77;;;3.20;95.60;;;;;;5153153;27;20242;-53
2022/03/20 06:29:31;;;;;;;27.97;16.73;;;3.20;95.70;;;;;;5153408;27;20274;-52
2022/03/20 06:31:59;;;;;;;32.73;20.33;;;3.20;95.50;;;;;;5167683;27;20195;-53
2022/03/20 06:34:27;;;;;;;29.10;17.83;;;3.30;95.70;;;;;;5165614;27;20211;-52
2022/03/20 06:36:58;;;;;;;27.17;18.83;;;3.40;95.70;;;;;;5152918;27;20594;-53
2022/03/20 06:39:26;;;;;;;30.90;20.73;;;3.50;95.70;;;;;;5152830;27;20281;-53
2022/03/20 06:41:56;;;;;;;34.60;20.87;;;3.60;95.50;;;;;;5152468;27;20675;-52
2022/03/20 06:44:24;;;;;;;32.67;19.97;;;3.80;95.60;;;;;;5152094;27;20226;-52
2022/03/20 06:46:54;;;;;;;27.10;19.03;;;3.90;95.30;;;;;;5152917;27;20766;-51
2022/03/20 06:49:23;;;;;;;30.57;20.67;;;3.90;95.10;;;;;;5153021;27;20226;-52
2022/03/20 06:51:51;;;;;;;31.13;22.70;;;4.10;95.20;;;;;;5152301;27;20252;-53
2022/03/20 06:54:20;;;;;;;30.37;20.73;;;4.20;95.00;;;;;;5152697;27;20730;-52
2022/03/20 06:56:48;;;;;;;28.50;20.70;;;4.50;94.90;;;;;;5152728;27;20232;-53
2022/03/20 06:59:18;;;;;;;28.03;18.43;;;4.80;94.90;;;;;;5152955;27;20210;-53
2022/03/20 07:01:47;;;;;;;30.27;21.07;;;5.00;94.40;;;;;;5164597;27;20194;-53
2022/03/20 07:04:15;;;;;;;31.97;22.70;;;5.00;94.20;;;;;;5173412;27;20282;-53
2022/03/20 07:06:43;;;;;;;29.83;21.43;;;5.00;94.30;;;;;;5173412;27;20283;-52
2022/03/20 07:09:11;;;;;;;36.93;21.33;;;5.20;93.90;;;;;;5173296;27;20234;-53
2022/03/20 07:11:39;;;;;;;29.10;19.13;;;5.20;94.10;;;;;;5163719;27;20220;-53
2022/03/20 07:14:07;;;;;;;28.57;20.17;;;5.00;94.00;;;;;;5163482;27;20205;-53
2022/03/20 07:16:38;;;;;;;33.47;21.93;;;5.00;94.30;;;;;;5161126;27;20226;-53
2022/03/20 07:19:09;;;;;;;29.70;21.53;;;4.70;94.50;;;;;;5166617;27;20200;-52
2022/03/20 07:21:37;;;;;;;30.83;21.90;;;4.50;94.70;;;;;;5161108;27;20798;-53
2022/03/20 07:24:06;;;;;;;30.30;20.70;;;4.60;94.80;;;;;;5161982;27;20602;-52
2022/03/20 07:29:32;;;;;;;32.30;23.47;;;4.90;95.10;;;;;;5154936;27;20258;-53
2022/03/20 07:32:04;;;;;;;31.63;22.23;;;5.20;95.10;;;;;;5163055;27;20205;-53
2022/03/20 07:34:33;;;;;;;30.93;21.10;;;5.70;95.10;;;;;;5173247;27;20189;-53
2022/03/20 07:37:01;;;;;;;31.67;23.20;;;5.80;94.60;;;;;;5173057;27;20694;-53
2022/03/20 07:39:29;;;;;;;31.40;23.13;;;5.90;94.70;;;;;;5173112;27;20677;-53
2022/03/20 07:41:57;;;;;;;33.37;23.60;;;6.30;95.10;;;;;;5172846;27;20574;-53
2022/03/20 07:44:26;;;;;;;35.67;23.33;;;6.40;94.70;;;;;;5172992;27;20265;-53
2022/03/20 07:46:54;;;;;;;31.20;23.33;;;6.60;94.40;;;;;;5173125;27;20285;-52
2022/03/20 07:49:24;;;;;;;31.53;23.30;;;6.60;94.70;;;;;;5165626;27;20205;-53
2022/03/20 07:51:53;;;;;;;34.20;23.90;;;6.60;94.20;;;;;;5151786;27;20571;-53
2022/03/20 07:54:21;;;;;;;34.47;25.03;;;6.80;94.30;;;;;;5152071;27;20289;-53
2022/03/20 07:56:49;;;;;;;34.33;23.80;;;7.00;94.20;;;;;;5152222;27;20237;-53
2022/03/20 07:59:17;;;;;;;32.87;24.23;;;7.10;94.30;;;;;;5152222;27;20206;-53
2022/03/20 08:01:46;;;;;;;34.23;24.73;;;7.20;94.40;;;;;;5149427;27;20204;-53
2022/03/20 08:04:14;;;;;;;35.40;25.53;;;7.20;94.30;;;;;;5150648;27;20229;-53
2022/03/20 08:06:44;;;;;;;34.40;24.87;;;7.10;94.70;;;;;;5153584;27;20223;-53
2022/03/20 08:09:12;;;;;;;36.27;26.30;;;7.00;94.70;;;;;;5165144;27;20229;-53
2022/03/20 08:11:40;;;;;;;36.63;25.37;;;7.10;94.70;;;;;;5174976;27;20257;-53
2022/03/20 08:14:08;;;;;;;33.63;24.03;;;7.10;94.40;;;;;;5172446;27;20295;-53
2022/03/20 08:16:39;;;;;;;33.00;24.27;;;7.00;94.30;;;;;;5174091;27;20266;-53
2022/03/20 08:19:09;;;;;;;31.43;24.53;;;7.00;94.60;;;;;;5154679;27;20201;-53
2022/03/20 08:21:39;;;;;;;33.83;24.53;;;7.00;94.70;;;;;;5155636;27;20702;-53
2022/03/20 08:24:12;;;;;;;36.43;25.57;;;7.10;94.70;;;;;;5163111;27;20273;-53
2022/03/20 08:26:41;;;;;;;35.23;25.47;;;7.10;95.30;;;;;;5165300;27;20233;-53
2022/03/20 08:29:10;;;;;;;34.93;24.87;;;7.30;95.70;;;;;;5177574;27;20204;-53
2022/03/20 08:31:43;;;;;;;37.47;26.50;;;7.50;95.70;;;;;;5162432;27;20201;-53
2022/03/20 08:34:13;;;;;;;34.50;25.23;;;7.60;95.80;;;;;;5159519;27;20811;-53
2022/03/20 08:36:41;;;;;;;37.07;26.30;;;7.60;95.00;;;;;;5164925;27;20267;-53
2022/03/20 08:39:11;;;;;;;34.43;24.40;;;7.70;94.90;;;;;;5160395;27;20698;-52
2022/03/20 08:41:40;;;;;;;32.97;24.47;;;7.70;95.10;;;;;;5158728;27;20251;-52
2022/03/20 08:44:08;;;;;;;39.10;27.70;;;7.70;94.90;;;;;;5161980;27;20662;-53
2022/03/20 08:46:37;;;;;;;35.57;27.83;;;7.70;95.40;;;;;;5163212;27;20218;-53
2022/03/20 08:49:07;;;;;;;37.87;29.27;;;7.80;95.70;;;;;;5184902;27;20667;-53
2022/03/20 08:51:38;;;;;;;37.03;27.43;;;7.80;95.30;;;;;;5159950;27;20268;-53
2022/03/20 08:54:06;;;;;;;41.33;26.20;;;7.80;95.50;;;;;;5170512;27;20283;-53
2022/03/20 08:56:36;;;;;;;42.50;29.10;;;8.00;95.70;;;;;;5176206;27;20257;-53
2022/03/20 08:59:06;;;;;;;41.90;28.00;;;8.20;95.50;;;;;;5170849;27;20285;-53
2022/03/20 09:01:34;;;;;;;40.63;28.50;;;8.10;95.60;;;;;;5169303;27;20209;-52
2022/03/20 09:04:02;;;;;;;39.67;27.70;;;8.10;95.60;;;;;;5173943;27;20205;-53
2022/03/20 09:06:30;;;;;;;35.60;27.27;;;8.30;95.60;;;;;;5176715;27;20761;-53
2022/03/20 09:08:58;;;;;;;40.50;29.80;;;8.30;96.00;;;;;;5177695;27;20196;-52
2022/03/20 09:11:26;;;;;;;38.80;27.00;;;8.30;96.80;;;;;;5196104;27;20238;-53
2022/03/20 09:13:56;;;;;;;37.30;26.93;;;8.40;96.00;;;;;;5185244;27;20226;-53
2022/03/20 09:19:10;;;;;;;49.70;36.27;;;8.50;96.30;;;;;;5194298;27;20680;-53
2022/03/20 09:21:39;;;;;;;36.30;27.90;;;8.60;96.20;;;;;;5177099;27;20679;-53
2022/03/20 09:24:08;;;;;;;40.80;28.23;;;8.60;96.40;;;;;;5154182;27;20203;-53
2022/03/20 09:26:36;;;;;;;41.00;31.30;;;8.70;96.10;;;;;;5162075;27;20292;-53
2022/03/20 09:29:06;;;;;;;42.80;28.93;;;8.70;96.10;;;;;;5195083;27;20221;-53
2022/03/20 09:31:34;;;;;;;38.97;27.10;;;8.80;95.60;;;;;;5195338;27;20288;-53
2022/03/20 09:34:06;;;;;;;57.93;42.83;;;9.00;96.30;;;;;;5195051;27;20274;-53
2022/03/20 09:36:36;;;;;;;56.33;42.27;;;8.90;96.10;;;;;;5187126;27;20230;-53
2022/03/20 09:39:04;;;;;;;43.13;31.03;;;9.00;95.80;;;;;;5154813;27;20206;-53
2022/03/20 09:41:34;;;;;;;41.10;30.47;;;9.10;95.40;;;;;;5171610;27;20202;-53
2022/03/20 09:44:06;;;;;;;38.57;27.60;;;9.10;95.70;;;;;;5170858;27;20210;-53
2022/03/20 09:46:35;;;;;;;39.53;27.23;;;9.10;95.40;;;;;;5183692;27;20264;-53
2022/03/20 09:49:06;;;;;;;38.40;29.63;;;9.20;95.70;;;;;;5194896;27;20224;-53
2022/03/20 09:51:35;;;;;;;40.37;29.27;;;9.10;96.80;;;;;;5194988;27;20295;-53
2022/03/20 09:54:04;;;;;;;37.53;28.17;;;9.30;96.80;;;;;;5194590;27;20206;-53
2022/03/20 09:56:32;;;;;;;39.77;25.97;;;9.30;96.20;;;;;;5190485;27;20656;-53
2022/03/20 09:59:01;;;;;;;38.20;27.60;;;9.50;95.90;;;;;;5190534;27;20232;-53
2022/03/20 10:01:30;;;;;;;38.97;28.50;;;9.40;96.30;;;;;;5175528;27;20237;-53
2022/03/20 10:04:10;;;;;;;37.37;27.80;;;9.40;96.50;;;;;;5156022;27;20206;-53
2022/03/20 10:06:39;;;;;;;35.40;27.40;;;9.60;96.50;;;;;;5167003;27;20269;-53
2022/03/20 10:09:09;;;;;;;36.27;28.10;;;9.60;96.70;;;;;;5183597;27;20249;-53
2022/03/20 10:11:41;;;;;;;37.60;27.23;;;9.70;96.90;;;;;;5169838;27;20735;-53
2022/03/20 10:14:14;;;;;;;37.00;27.73;;;9.90;97.30;;;;;;5166374;27;20289;-53
2022/03/20 10:16:44;;;;;;;38.67;28.27;;;10.00;95.90;;;;;;5164021;27;20226;-53
2022/03/20 10:19:32;;;;;;;40.57;28.37;;;10.10;95.30;;;;;;5194574;27;20204;-53
2022/03/20 10:22:02;;;;;;;39.30;28.03;;;9.90;96.30;;;;;;5174725;27;20212;-53
2022/03/20 10:24:32;;;;;;;37.33;26.97;;;9.90;96.00;;;;;;5159456;27;20277;-52
2022/03/20 10:27:16;;;;;;;34.10;26.53;;;10.10;95.40;;;;;;5152279;27;20787;-52
2022/03/20 10:29:50;;;;;;;39.87;28.83;;;10.00;95.80;;;;;;5154734;27;20918;-53
2022/03/20 10:32:20;;;;;;;37.27;27.97;;;10.10;96.10;;;;;;5161858;27;20714;-53
2022/03/20 10:34:57;;;;;;;39.50;28.20;;;10.10;95.80;;;;;;5161796;27;20201;-53
2022/03/20 10:37:49;;;;;;;36.27;27.43;;;10.30;95.90;;;;;;5162714;27;20256;-52
2022/03/20 10:40:19;;;;;;;38.50;27.87;;;10.40;96.10;;;;;;5163841;27;20677;-53
2022/03/20 10:43:08;;;;;;;37.23;26.13;;;10.30;96.10;;;;;;5160859;27;20204;-53
2022/03/20 10:45:54;;;;;;;36.83;28.50;;;10.40;96.00;;;;;;5161207;27;20663;-53
2022/03/20 10:48:36;;;;;;;36.60;26.83;;;10.50;96.30;;;;;;5166977;27;20670;-53
2022/03/20 10:51:06;;;;;;;39.60;28.07;;;10.50;96.50;;;;;;5150578;27;20255;-52
2022/03/20 10:53:35;;;;;;;35.23;26.07;;;10.60;96.00;;;;;;5166295;27;20205;-53
2022/03/20 10:56:08;;;;;;;37.73;28.63;;;10.80;96.20;;;;;;5152345;27;20226;-52
2022/03/20 10:58:40;;;;;;;40.93;28.30;;;10.80;96.30;;;;;;5152185;27;20255;-53
2022/03/20 11:01:09;;;;;;;36.90;25.83;;;11.00;96.00;;;;;;5157490;27;20718;-53
2022/03/20 11:03:41;;;;;;;37.70;27.93;;;11.10;96.00;;;;;;5172496;27;20293;-53
2022/03/20 11:06:11;;;;;;;37.10;27.23;;;11.00;96.40;;;;;;5173433;27;20221;-52
2022/03/20 11:08:39;;;;;;;37.83;27.17;;;11.10;96.70;;;;;;5172982;27;20238;-52
2022/03/20 11:11:09;;;;;;;41.30;27.97;;;11.20;96.10;;;;;;5173392;27;20257;-53
2022/03/20 11:13:40;;;;;;;35.77;27.80;;;11.30;96.00;;;;;;5169758;27;20205;-53
2022/03/20 11:16:09;;;;;;;36.83;28.00;;;11.20;96.30;;;;;;5151445;27;20255;-53
2022/03/20 11:18:42;;;;;;;36.93;28.53;;;11.20;96.70;;;;;;5164999;27;20214;-53
2022/03/20 11:21:11;;;;;;;39.20;27.20;;;11.20;96.60;;;;;;5151947;27;20243;-52
2022/03/20 11:23:40;;;;;;;38.83;28.57;;;11.40;96.40;;;;;;5152237;27;20253;-52
2022/03/20 11:26:11;;;;;;;38.63;26.53;;;11.40;96.50;;;;;;5152187;27;20254;-53
2022/03/20 11:28:45;;;;;;;37.10;27.60;;;11.50;96.30;;;;;;5152108;27;20206;-53
2022/03/20 11:31:14;;;;;;;36.13;27.73;;;11.40;95.60;;;;;;5152200;27;20194;-53
2022/03/20 11:33:45;;;;;;;35.80;27.57;;;11.50;95.90;;;;;;5155428;27;20198;-53
2022/03/20 11:36:17;;;;;;;33.80;26.57;;;11.60;95.40;;;;;;5152079;27;20221;-53
2022/03/20 11:39:10;;;;;;;36.10;27.43;;;11.60;95.50;;;;;;5154838;27;20275;-53
2022/03/20 11:41:38;;;;;;;34.33;26.70;;;11.60;96.20;;;;;;5176450;27;20880;-52
2022/03/20 11:44:21;;;;;;;35.80;27.63;;;11.60;96.50;;;;;;5162186;27;20197;-53
2022/03/20 11:47:22;;;;;;;35.27;30.00;;;11.70;95.80;;;;;;5181384;27;20897;-53
2022/03/20 11:50:10;;;;;;;35.97;28.03;;;11.80;97.30;;;;;;5170513;27;20504;-53
2022/03/20 11:52:49;;;;;;;36.47;28.00;;;11.90;96.50;;;;;;5176490;27;20584;-53
2022/03/20 11:55:41;;;;;;;34.63;27.43;;;11.60;96.80;;;;;;5167950;27;20201;-53
2022/03/20 11:58:32;;;;;;;36.33;27.87;;;11.50;96.90;;;;;;5178863;27;20228;-53
2022/03/20 12:01:03;;;;;;;35.20;26.43;;;11.30;97.00;;;;;;5179620;27;20210;-53
2022/03/20 12:03:53;;;;;;;36.83;28.20;;;11.50;96.90;;;;;;5150914;27;20645;-53
2022/03/20 12:06:55;;;;;;;39.50;28.70;;;11.60;97.00;;;;;;5160509;27;20226;-53
2022/03/20 12:09:50;;;;;;;38.90;27.60;;;11.90;98.50;;;;;;5172867;27;20549;-52
2022/03/20 12:12:34;;;;;;;36.30;27.73;;;12.10;97.40;;;;;;5153036;27;20214;-53
2022/03/20 12:15:10;;;;;;;35.97;28.30;;;12.20;97.90;;;;;;5153683;27;20278;-53
2022/03/20 12:17:57;;;;;;;38.87;28.87;;;12.20;96.70;;;;;;5172442;27;20291;-52
2022/03/20 12:21:02;;;;;;;38.43;27.03;;;12.30;97.70;;;;;;5168214;27;20214;-52
2022/03/20 12:23:37;;;;;;;38.40;28.83;;;12.40;97.90;;;;;;5173261;27;20215;-53
2022/03/20 12:26:33;;;;;;;38.23;29.87;;;12.50;98.00;;;;;;5158316;27;20268;-53
2022/03/20 12:29:28;;;;;;;36.97;27.93;;;12.70;98.50;;;;;;5191675;27;20281;-53
2022/03/20 12:31:59;;;;;;;46.23;30.30;;;12.80;98.90;;;;;;5193533;27;20200;-53
2022/03/20 12:34:28;;;;;;;37.43;27.83;;;13.00;99.60;;;;;;5176942;27;20268;-50
2022/03/20 12:36:56;;;;;;;38.27;28.73;;;13.30;98.60;;;;;;5196947;27;20324;-50
2022/03/20 12:39:52;;;;;;;38.87;28.67;;;13.30;97.50;;;;;;5179976;27;20705;-50
2022/03/20 12:42:20;;;;;;;40.10;29.53;;;13.00;97.40;;;;;;5172579;27;20205;-51
2022/03/20 12:44:52;;;;;;;39.70;29.00;;;12.90;98.00;;;;;;5157845;27;20210;-50
2022/03/20 12:47:22;;;;;;;38.97;29.87;;;13.00;98.50;;;;;;5153314;27;20226;-53
2022/03/20 12:49:56;;;;;;;36.77;28.53;;;13.10;98.20;;;;;;5153140;27;20220;-53
2022/03/20 12:52:25;;;;;;;34.97;27.03;;;13.40;97.90;;;;;;5163475;27;20189;-53
2022/03/20 12:54:55;;;;;;;37.70;27.37;;;13.30;98.10;;;;;;5173344;27;20219;-52
2022/03/20 12:57:44;;;;;;;37.27;28.33;;;13.40;98.40;;;;;;5174715;27;20225;-52
2022/03/20 13:00:16;;;;;;;36.70;27.37;;;13.50;97.50;;;;;;5175363;27;20222;-53
2022/03/20 13:03:03;;;;;;;35.37;27.20;;;13.60;97.50;;;;;;5175645;27;20266;-53
2022/03/20 13:05:32;;;;;;;35.53;27.10;;;13.70;98.10;;;;;;5175759;27;20250;-52
2022/03/20 13:08:06;;;;;;;37.77;27.27;;;13.70;97.40;;;;;;5171987;27;20216;-51
2022/03/20 13:10:37;;;;;;;39.33;27.47;;;13.70;97.90;;;;;;5175088;27;20734;-51
2022/03/20 13:13:13;;;;;;;41.37;27.07;;;13.80;98.80;;;;;;5175135;27;20181;-51
2022/03/20 13:15:42;;;;;;;37.80;27.60;;;14.00;98.20;;;;;;5175366;27;20198;-50
2022/03/20 13:18:11;;;;;;;36.60;27.13;;;13.90;98.70;;;;;;5175199;27;20225;-50
2022/03/20 13:20:41;;;;;;;36.47;27.27;;;13.90;98.20;;;;;;5174826;27;20201;-50
2022/03/20 13:23:11;;;;;;;36.40;27.63;;;13.80;98.90;;;;;;5174762;27;20182;-51
2022/03/20 13:25:41;;;;;;;36.33;26.77;;;13.70;99.20;;;;;;5175106;27;20666;-51